Time;durP1;ratioP1;P1;durP2;ratioP2;P2;SDS_P1;SDS_P2;PMS_P1;PMS_P2;Temp;Humidity;BMP_temperature;BMP_pressure;BME280_temperature;BME280_humidity;BME280_pressure;Samples;Min_cycle;Max_cycle;Signal;HPM_P1;HPM_P2
2023/12/05 00:00:31;;;;;;;2.10;1.33;;;;;;;4.64;nan;98370.13;4987647;28;20363;-79
2023/12/05 00:02:57;;;;;;;1.90;1.02;;;;;;;5.12;nan;98375.03;4993032;28;20214;-80
2023/12/05 00:05:22;;;;;;;1.80;1.10;;;;;;;5.61;nan;98363.34;4987298;28;20195;-79
2023/12/05 00:07:47;;;;;;;1.23;0.90;;;;;;;6.00;nan;98367.81;4983324;28;20440;-77
2023/12/05 00:10:13;;;;;;;0.90;0.73;;;;;;;6.34;nan;98368.22;4983202;28;20265;-77
2023/12/05 00:12:49;;;;;;;1.20;0.70;;;;;;;6.62;nan;98367.22;4986166;28;20188;-77
2023/12/05 00:15:25;;;;;;;0.70;0.70;;;;;;;6.87;nan;98364.59;4977997;28;22178;-78
2023/12/05 00:17:50;;;;;;;0.80;0.73;;;;;;;7.10;nan;98367.41;4982302;28;20299;-77
2023/12/05 00:20:16;;;;;;;0.87;0.63;;;;;;;7.24;nan;98375.13;4981035;28;20199;-77
2023/12/05 00:22:47;;;;;;;0.80;0.70;;;;;;;7.31;nan;98363.28;4985846;28;20485;-77
2023/12/05 00:25:25;;;;;;;0.85;0.70;;;;;;;7.38;nan;98358.50;4983250;28;20335;-77
2023/12/05 00:27:57;;;;;;;0.70;0.60;;;;;;;7.38;nan;98358.50;4982338;28;20304;-77
2023/12/05 00:30:35;;;;;;;1.25;0.80;;;;;;;7.41;nan;98365.28;4982507;28;20299;-77
2023/12/05 00:33:03;;;;;;;1.67;0.70;;;;;;;7.41;nan;98358.28;4981185;28;20201;-77
2023/12/05 00:35:29;;;;;;;0.90;0.70;;;;;;;7.46;nan;98376.25;4987548;28;20196;-79
2023/12/05 00:37:54;;;;;;;1.00;0.60;;;;;;;7.49;nan;98366.41;4991312;28;20294;-79
2023/12/05 00:40:20;;;;;;;0.90;0.60;;;;;;;7.56;nan;98372.03;4995622;28;20534;-79
2023/12/05 00:42:45;;;;;;;1.10;0.70;;;;;;;7.59;nan;98366.59;4984056;28;20212;-79
2023/12/05 00:45:14;;;;;;;1.27;0.60;;;;;;;7.63;nan;98373.25;4989775;28;20231;-79
2023/12/05 00:47:42;;;;;;;1.33;0.70;;;;;;;7.64;nan;98366.25;4990474;28;20253;-79
2023/12/05 00:50:08;;;;;;;0.80;0.80;;;;;;;7.65;nan;98371.38;4986717;28;20195;-79
2023/12/05 00:52:33;;;;;;;0.80;0.70;;;;;;;7.64;nan;98368.84;4992008;28;20926;-79
2023/12/05 00:54:59;;;;;;;0.80;0.70;;;;;;;7.66;nan;98369.59;4989562;28;20469;-79
2023/12/05 00:57:24;;;;;;;0.87;0.80;;;;;;;7.65;nan;98379.22;4986419;28;20287;-80
2023/12/05 00:59:50;;;;;;;2.60;0.70;;;;;;;7.70;nan;98373.66;4989492;28;20261;-79
2023/12/05 01:02:15;;;;;;;1.10;0.80;;;;;;;7.73;nan;98376.88;4994974;28;20257;-79
2023/12/05 01:04:45;;;;;;;1.60;0.57;;;;;;;7.75;nan;98382.84;4996732;28;20694;-78
2023/12/05 01:07:13;;;;;;;0.80;0.60;;;;;;;7.76;nan;98389.72;4988829;28;20486;-78
2023/12/05 01:09:41;;;;;;;0.60;0.60;;;;;;;7.79;nan;98393.91;4980061;28;23455;-79
2023/12/05 01:12:11;;;;;;;1.10;0.70;;;;;;;7.78;nan;98383.53;4987223;28;20210;-79
2023/12/05 01:14:36;;;;;;;0.98;0.88;;;;;;;7.78;nan;98388.78;4982562;28;20704;-79
2023/12/05 01:17:02;;;;;;;1.00;0.80;;;;;;;7.75;nan;98385.47;4985549;28;20191;-78
2023/12/05 01:19:28;;;;;;;0.70;0.55;;;;;;;7.72;nan;98393.53;4978745;28;20919;-79
2023/12/05 01:21:53;;;;;;;1.70;0.73;;;;;;;7.67;nan;98403.47;4981960;28;21031;-78
2023/12/05 01:24:18;;;;;;;0.90;0.90;;;;;;;7.63;nan;98406.41;4984181;28;20217;-79
2023/12/05 01:26:44;;;;;;;0.70;0.67;;;;;;;7.62;nan;98408.19;4980878;28;20833;-79
2023/12/05 01:29:09;;;;;;;1.37;0.87;;;;;;;7.61;nan;98410.88;4976606;28;20203;-78
2023/12/05 01:31:35;;;;;;;1.30;0.60;;;;;;;7.65;nan;98405.34;4978074;28;20222;-79
2023/12/05 01:34:00;;;;;;;1.00;0.67;;;;;;;7.69;nan;98406.78;4983182;28;20887;-79
2023/12/05 01:36:30;;;;;;;0.77;0.70;;;;;;;7.75;nan;98414.22;4984763;28;20695;-79
2023/12/05 01:38:56;;;;;;;1.42;0.80;;;;;;;7.84;nan;98412.72;4996789;28;20784;-80
2023/12/05 01:41:22;;;;;;;0.80;0.60;;;;;;;7.94;nan;98405.06;4997281;28;20283;-80
2023/12/05 01:43:47;;;;;;;0.73;0.60;;;;;;;8.02;nan;98410.56;4991433;28;20209;-80
2023/12/05 01:46:22;;;;;;;0.80;0.70;;;;;;;8.08;nan;98412.72;4998688;28;20214;-81
2023/12/05 01:48:48;;;;;;;0.82;0.50;;;;;;;8.08;nan;98410.13;4983160;28;20279;-79
2023/12/05 01:51:15;;;;;;;0.80;0.53;;;;;;;8.12;nan;98416.78;4982461;28;20203;-79
2023/12/05 01:53:42;;;;;;;0.85;0.65;;;;;;;8.15;nan;98413.94;4975759;28;20565;-80
2023/12/05 01:56:10;;;;;;;1.63;0.70;;;;;;;8.19;nan;98422.41;4981071;28;20200;-79
2023/12/05 01:58:37;;;;;;;1.63;1.02;;;;;;;8.21;nan;98412.69;4985772;28;20198;-79
2023/12/05 02:01:04;;;;;;;0.90;0.70;;;;;;;8.20;nan;98421.44;4983165;28;20280;-79
2023/12/05 02:03:31;;;;;;;0.90;0.80;;;;;;;8.19;nan;98420.63;4978824;28;20211;-79
2023/12/05 02:05:58;;;;;;;0.70;0.70;;;;;;;8.23;nan;98415.16;4979737;28;20310;-80
2023/12/05 02:08:26;;;;;;;0.90;0.80;;;;;;;8.20;nan;98430.13;4979464;28;20449;-79
2023/12/05 02:10:52;;;;;;;1.85;0.70;;;;;;;8.18;nan;98415.50;4978554;28;20542;-78
2023/12/05 02:13:18;;;;;;;5.23;1.00;;;;;;;8.17;nan;98424.28;4980613;28;20683;-79
2023/12/05 02:15:43;;;;;;;1.70;0.90;;;;;;;8.14;nan;98425.34;4979429;28;20215;-78
2023/12/05 02:18:12;;;;;;;0.83;0.80;;;;;;;8.11;nan;98430.81;4984411;28;20386;-77
2023/12/05 02:20:50;;;;;;;1.85;0.85;;;;;;;8.12;nan;98426.41;4983503;28;20213;-77
2023/12/05 02:23:40;;;;;;;1.35;0.90;;;;;;;8.12;nan;98415.94;4976192;28;20290;-77
2023/12/05 02:26:27;;;;;;;1.75;0.65;;;;;;;8.11;nan;98411.69;4979986;28;20226;-77
2023/12/05 02:28:53;;;;;;;1.10;0.80;;;;;;;8.14;nan;98417.50;4977981;28;20191;-80
2023/12/05 02:31:18;;;;;;;1.00;0.70;;;;;;;8.20;nan;98419.66;4980702;28;20191;-77
2023/12/05 02:33:44;;;;;;;0.70;0.60;;;;;;;8.25;nan;98426.34;4984263;28;20202;-77
2023/12/05 02:36:19;;;;;;;2.53;0.83;;;;;;;8.27;nan;98433.16;4975356;28;20234;-78
2023/12/05 02:39:16;;;;;;;1.00;0.80;;;;;;;8.31;nan;98433.75;4977840;28;20447;-78
2023/12/05 02:41:45;;;;;;;1.50;0.93;;;;;;;8.38;nan;98433.19;4977917;28;20199;-77
2023/12/05 02:44:16;;;;;;;1.27;0.80;;;;;;;8.40;nan;98436.56;4978118;28;20241;-78
2023/12/05 02:46:43;;;;;;;1.58;0.68;;;;;;;8.38;nan;98437.59;4981232;28;20214;-78
2023/12/05 02:49:10;;;;;;;1.25;0.80;;;;;;;8.36;nan;98436.88;4971977;28;20927;-77
2023/12/05 02:51:36;;;;;;;1.05;0.60;;;;;;;8.34;nan;98436.97;4985979;28;20195;-78
2023/12/05 02:54:05;;;;;;;0.73;0.70;;;;;;;8.31;nan;98434.56;4982652;28;20203;-78
2023/12/05 02:56:31;;;;;;;0.80;0.70;;;;;;;8.32;nan;98433.66;4979551;28;20212;-78
2023/12/05 02:58:57;;;;;;;1.00;0.90;;;;;;;8.31;nan;98431.13;4983955;28;20235;-78
2023/12/05 03:01:22;;;;;;;1.07;0.77;;;;;;;8.36;nan;98431.63;4977309;28;20256;-78
2023/12/05 03:03:47;;;;;;;0.90;0.70;;;;;;;8.37;nan;98430.69;4982023;28;20808;-78
2023/12/05 03:06:13;;;;;;;1.37;0.80;;;;;;;8.38;nan;98429.75;4976385;28;20305;-78
2023/12/05 03:08:38;;;;;;;1.43;0.93;;;;;;;8.39;nan;98429.66;4976968;28;20489;-78
2023/12/05 03:11:04;;;;;;;0.60;0.60;;;;;;;8.41;nan;98429.56;4988946;28;20196;-78
2023/12/05 03:13:29;;;;;;;1.53;0.60;;;;;;;8.40;nan;98433.13;4981625;28;20577;-78
2023/12/05 03:15:54;;;;;;;0.70;0.60;;;;;;;8.39;nan;98440.13;4979422;28;20238;-78
2023/12/05 03:18:20;;;;;;;0.67;0.60;;;;;;;8.38;nan;98440.22;4971946;28;20214;-78
2023/12/05 03:20:46;;;;;;;1.67;0.70;;;;;;;8.34;nan;98420.44;4985884;28;20183;-78
2023/12/05 03:23:11;;;;;;;0.90;0.70;;;;;;;8.35;nan;98433.44;4978267;28;20269;-78
2023/12/05 03:25:37;;;;;;;1.27;0.77;;;;;;;8.33;nan;98422.22;4979139;28;20239;-78
2023/12/05 03:28:02;;;;;;;0.80;0.60;;;;;;;8.31;nan;98421.50;4980935;28;20221;-78
2023/12/05 03:30:27;;;;;;;2.17;2.03;;;;;;;8.30;nan;98432.09;4985228;28;20763;-78
2023/12/05 03:32:53;;;;;;;1.50;0.80;;;;;;;8.27;nan;98435.75;4988361;28;20206;-78
2023/12/05 03:35:18;;;;;;;4.70;0.73;;;;;;;8.28;nan;98431.38;4981466;28;20250;-78
2023/12/05 03:37:43;;;;;;;1.30;0.70;;;;;;;8.31;nan;98431.97;4986724;28;20514;-78
2023/12/05 03:40:09;;;;;;;1.23;0.70;;;;;;;8.30;nan;98419.00;4986595;28;20599;-78
2023/12/05 03:42:35;;;;;;;1.37;0.87;;;;;;;8.27;nan;98430.53;4987862;28;20294;-78
2023/12/05 03:45:01;;;;;;;2.40;0.87;;;;;;;8.29;nan;98439.13;4983465;28;20222;-78
2023/12/05 03:47:26;;;;;;;0.90;0.63;;;;;;;8.32;nan;98438.88;4982563;28;20524;-78
2023/12/05 03:49:52;;;;;;;2.40;0.90;;;;;;;8.31;nan;98433.75;4985506;28;20214;-78
2023/12/05 03:52:18;;;;;;;1.95;0.80;;;;;;;8.31;nan;98437.19;4983225;28;20238;-78
2023/12/05 03:54:43;;;;;;;1.00;0.70;;;;;;;8.30;nan;98432.09;4979976;28;20242;-81
2023/12/05 03:57:08;;;;;;;1.53;0.60;;;;;;;8.29;nan;98438.25;4995918;28;20199;-80
2023/12/05 03:59:34;;;;;;;3.50;0.70;;;;;;;8.25;nan;98452.53;4987832;28;20330;-81
2023/12/05 04:02:00;;;;;;;0.70;0.70;;;;;;;8.24;nan;98449.06;4990351;28;20191;-83
2023/12/05 04:04:25;;;;;;;0.70;0.70;;;;;;;8.25;nan;98449.91;4983103;28;20648;-78
2023/12/05 04:06:51;;;;;;;0.70;0.70;;;;;;;8.25;nan;98458.56;4988776;28;20227;-78
2023/12/05 04:09:17;;;;;;;1.90;1.42;;;;;;;8.26;nan;98449.78;4982717;28;20203;-78
2023/12/05 04:11:43;;;;;;;0.90;0.60;;;;;;;8.27;nan;98461.09;4981731;28;20257;-78
2023/12/05 04:14:08;;;;;;;4.53;0.80;;;;;;;8.28;nan;98465.38;4982321;28;20199;-78
2023/12/05 04:16:34;;;;;;;1.87;0.87;;;;;;;8.30;nan;98461.69;4999326;28;20200;-78
2023/12/05 04:19:00;;;;;;;2.35;0.88;;;;;;;8.32;nan;98469.44;4979019;28;20271;-79
2023/12/05 04:21:26;;;;;;;2.10;1.03;;;;;;;8.31;nan;98473.00;4982605;28;20569;-78
2023/12/05 04:23:52;;;;;;;1.27;0.70;;;;;;;8.34;nan;98472.78;4982851;28;20195;-78
2023/12/05 04:26:19;;;;;;;1.75;0.90;;;;;;;8.37;nan;98470.78;4995285;28;20305;-79
2023/12/05 04:28:45;;;;;;;0.73;0.60;;;;;;;8.37;nan;98483.00;4981602;28;20203;-79
2023/12/05 04:31:13;;;;;;;0.73;0.63;;;;;;;8.38;nan;98479.47;4982743;28;20199;-79
2023/12/05 04:33:40;;;;;;;1.00;0.90;;;;;;;8.37;nan;98485.63;4979052;28;20260;-79
2023/12/05 04:36:06;;;;;;;4.07;0.90;;;;;;;8.34;nan;98475.38;4980396;28;20191;-78
2023/12/05 04:38:32;;;;;;;1.10;0.80;;;;;;;8.34;nan;98483.22;4980978;28;20928;-78
2023/12/05 04:40:58;;;;;;;0.60;0.60;;;;;;;8.33;nan;98485.03;4985568;28;20254;-78
2023/12/05 04:43:24;;;;;;;6.63;0.90;;;;;;;8.33;nan;98474.56;4984971;28;20216;-78
2023/12/05 04:45:49;;;;;;;4.17;0.80;;;;;;;8.33;nan;98468.50;4991693;28;20410;-79
2023/12/05 04:48:16;;;;;;;1.47;0.80;;;;;;;8.32;nan;98477.31;4988245;28;20257;-79
2023/12/05 04:50:41;;;;;;;2.65;1.00;;;;;;;8.32;nan;98482.53;4992805;28;20233;-78
2023/12/05 04:53:07;;;;;;;2.63;0.80;;;;;;;8.29;nan;98478.34;5004590;28;20461;-79
2023/12/05 04:55:32;;;;;;;0.67;0.57;;;;;;;8.29;nan;98477.50;4997577;28;20195;-79
2023/12/05 04:58:05;;;;;;;0.80;0.70;;;;;;;8.28;nan;98476.66;5003833;28;20183;-78
2023/12/05 05:00:31;;;;;;;0.98;0.80;;;;;;;8.29;nan;98480.09;5000545;28;20195;-78
2023/12/05 05:03:04;;;;;;;0.90;0.80;;;;;;;8.28;nan;98478.44;4995075;28;20577;-79
2023/12/05 05:05:32;;;;;;;2.17;0.98;;;;;;;8.28;nan;98470.59;5004997;28;20222;-78
2023/12/05 05:08:08;;;;;;;1.97;1.03;;;;;;;8.28;nan;98468.81;5002199;28;20856;-78
2023/12/05 05:10:36;;;;;;;2.20;1.00;;;;;;;8.29;nan;98477.50;4996811;28;20465;-78
2023/12/05 05:13:27;;;;;;;1.00;0.90;;;;;;;8.28;nan;98471.44;5006488;28;20668;-78
2023/12/05 05:15:59;;;;;;;1.20;0.95;;;;;;;8.30;nan;98484.41;5001289;28;20224;-79
2023/12/05 05:18:28;;;;;;;1.00;0.93;;;;;;;8.29;nan;98485.34;5005765;28;20206;-78
2023/12/05 05:21:18;;;;;;;2.50;0.88;;;;;;;8.24;nan;98472.63;4996339;28;20661;-79
2023/12/05 05:23:53;;;;;;;2.35;1.00;;;;;;;8.22;nan;98473.66;5001842;28;20206;-79
2023/12/05 05:26:33;;;;;;;2.15;0.90;;;;;;;8.18;nan;98468.66;5002894;28;20220;-79
2023/12/05 05:29:03;;;;;;;2.80;1.02;;;;;;;8.18;nan;98476.50;5005510;28;20218;-79
2023/12/05 05:31:35;;;;;;;1.33;1.13;;;;;;;8.15;nan;98476.69;5000539;28;20196;-80
2023/12/05 05:34:01;;;;;;;1.00;0.77;;;;;;;8.17;nan;98481.84;4991278;28;20200;-82
2023/12/05 05:36:26;;;;;;;0.67;0.60;;;;;;;8.16;nan;98470.53;4999204;28;20264;-82
2023/12/05 05:38:52;;;;;;;1.67;0.90;;;;;;;8.16;nan;98469.72;4998334;28;20278;-80
2023/12/05 05:41:17;;;;;;;1.40;0.80;;;;;;;8.16;nan;98469.72;5003617;28;20817;-82
2023/12/05 05:43:42;;;;;;;1.50;0.73;;;;;;;8.19;nan;98461.66;4989844;28;20254;-80
2023/12/05 05:46:08;;;;;;;6.30;0.90;;;;;;;8.19;nan;98465.09;4998158;28;20207;-80
2023/12/05 05:48:33;;;;;;;0.80;0.63;;;;;;;8.18;nan;98457.34;5008636;28;20230;-80
2023/12/05 05:50:59;;;;;;;1.60;0.87;;;;;;;8.16;nan;98469.72;5004541;28;20627;-81
2023/12/05 05:53:24;;;;;;;3.70;3.13;;;;;;;8.13;nan;98470.78;4995803;28;20716;-80
2023/12/05 05:55:49;;;;;;;3.00;1.20;;;;;;;8.08;nan;98475.50;5001374;28;20211;-80
2023/12/05 05:58:15;;;;;;;2.93;0.83;;;;;;;8.02;nan;98473.31;4994422;28;20279;-82
2023/12/05 06:00:40;;;;;;;4.87;1.13;;;;;;;7.97;nan;98462.34;5000775;28;20707;-81
2023/12/05 06:03:06;;;;;;;3.53;0.90;;;;;;;7.92;nan;98474.91;5002408;28;20244;-82
2023/12/05 06:05:31;;;;;;;1.00;0.93;;;;;;;7.87;nan;98485.69;5002067;28;20222;-82
2023/12/05 06:07:56;;;;;;;2.27;1.40;;;;;;;7.84;nan;98479.84;5001358;28;20596;-80
2023/12/05 06:10:22;;;;;;;2.00;0.90;;;;;;;7.84;nan;98477.25;5003898;28;20199;-81
2023/12/05 06:12:47;;;;;;;1.20;1.00;;;;;;;7.82;nan;98471.28;4998595;28;20282;-79
2023/12/05 06:15:13;;;;;;;0.67;0.60;;;;;;;7.82;nan;98476.50;4999739;28;20238;-79
2023/12/05 06:17:39;;;;;;;0.80;0.70;;;;;;;7.81;nan;98482.69;4998267;28;20768;-80
2023/12/05 06:20:05;;;;;;;2.50;1.20;;;;;;;7.79;nan;98493.25;4998677;28;20378;-79
2023/12/05 06:22:31;;;;;;;1.27;1.00;;;;;;;7.77;nan;98492.50;4998644;28;20195;-79
2023/12/05 06:24:57;;;;;;;2.60;1.17;;;;;;;7.73;nan;98504.97;5003960;28;20225;-79
2023/12/05 06:27:22;;;;;;;1.53;1.47;;;;;;;7.74;nan;98511.84;5006742;28;20212;-80
2023/12/05 06:29:47;;;;;;;3.07;1.00;;;;;;;7.73;nan;98504.13;5001445;28;20198;-80
2023/12/05 06:32:13;;;;;;;4.13;1.10;;;;;;;7.74;nan;98511.00;5000840;28;20210;-80
2023/12/05 06:34:38;;;;;;;0.93;0.73;;;;;;;7.78;nan;98517.72;5003978;28;20306;-80
2023/12/05 06:37:04;;;;;;;1.47;1.33;;;;;;;7.81;nan;98514.06;5009299;28;20665;-80
2023/12/05 06:39:37;;;;;;;1.87;1.00;;;;;;;7.82;nan;98510.50;5001258;28;20195;-81
2023/12/05 06:42:06;;;;;;;2.47;1.48;;;;;;;7.81;nan;98514.88;4998527;28;20218;-80
2023/12/05 06:44:34;;;;;;;5.13;2.40;;;;;;;7.80;nan;98523.66;4999486;28;20250;-79
2023/12/05 06:47:00;;;;;;;3.35;1.95;;;;;;;7.82;nan;98519.16;4994439;28;20319;-78
2023/12/05 06:49:25;;;;;;;8.17;3.63;;;;;;;7.80;nan;98520.22;4993471;28;20285;-79
2023/12/05 06:51:57;;;;;;;3.67;2.77;;;;;;;7.78;nan;98514.25;4997634;28;20343;-79
2023/12/05 06:54:22;;;;;;;2.40;1.80;;;;;;;7.81;nan;98521.91;4999441;28;20199;-80
2023/12/05 06:56:48;;;;;;;4.60;1.80;;;;;;;7.80;nan;98523.66;4999528;28;20201;-81
2023/12/05 06:59:14;;;;;;;4.70;1.73;;;;;;;7.86;nan;98530.25;4996697;28;20465;-80
2023/12/05 07:01:40;;;;;;;6.07;2.70;;;;;;;7.86;nan;98525.03;5001998;28;20187;-80
2023/12/05 07:04:06;;;;;;;2.80;2.20;;;;;;;7.89;nan;98525.66;4997887;28;20198;-80
2023/12/05 07:06:32;;;;;;;8.43;3.10;;;;;;;7.91;nan;98529.00;4960132;28;1057837;-81
2023/12/05 07:08:57;;;;;;;9.87;2.80;;;;;;;7.95;nan;98540.91;5004252;28;20449;-80
2023/12/05 07:11:26;;;;;;;6.57;3.67;;;;;;;7.98;nan;98540.69;5003757;28;20689;-79
2023/12/05 07:13:53;;;;;;;1.20;1.02;;;;;;;8.00;nan;98537.97;4993975;28;20191;-78
2023/12/05 07:16:18;;;;;;;2.25;0.88;;;;;;;8.02;nan;98545.69;4995391;28;20203;-78
2023/12/05 07:18:43;;;;;;;1.63;0.90;;;;;;;8.06;nan;98552.38;4999892;28;20246;-79
2023/12/05 07:21:09;;;;;;;0.67;0.60;;;;;;;8.05;nan;98555.97;5004353;28;20773;-78
2023/12/05 07:23:34;;;;;;;2.00;1.00;;;;;;;8.07;nan;98554.88;5000537;28;20234;-79
2023/12/05 07:25:59;;;;;;;1.03;0.90;;;;;;;8.08;nan;98567.03;4994906;28;20195;-79
2023/12/05 07:28:25;;;;;;;1.03;0.80;;;;;;;8.10;nan;98570.38;5003779;28;20195;-79
2023/12/05 07:30:51;;;;;;;4.70;1.67;;;;;;;8.12;nan;98568.47;5002629;28;20190;-78
2023/12/05 07:33:16;;;;;;;3.10;2.00;;;;;;;8.12;nan;98570.25;4999294;28;20198;-78
2023/12/05 07:35:42;;;;;;;3.57;1.43;;;;;;;8.09;nan;98570.47;4995922;28;20260;-79
2023/12/05 07:38:07;;;;;;;9.00;2.77;;;;;;;8.10;nan;98572.13;4991118;28;20336;-78
2023/12/05 07:40:33;;;;;;;3.37;2.40;;;;;;;8.11;nan;98574.66;4995889;28;20213;-79
2023/12/05 07:42:58;;;;;;;6.03;2.37;;;;;;;8.13;nan;98577.19;4992525;28;20918;-79
2023/12/05 07:45:24;;;;;;;8.63;2.87;;;;;;;8.06;nan;98568.91;4989648;28;20214;-80
2023/12/05 07:47:49;;;;;;;3.00;1.70;;;;;;;8.10;nan;98580.84;4995333;28;20269;-80
2023/12/05 07:50:14;;;;;;;3.50;1.70;;;;;;;8.08;nan;98582.72;4993675;28;20203;-82
2023/12/05 07:52:41;;;;;;;2.93;2.00;;;;;;;8.07;nan;98578.41;5000254;28;20230;-80
2023/12/05 07:55:07;;;;;;;4.45;2.08;;;;;;;8.07;nan;98581.03;4998504;28;20203;-80
2023/12/05 07:57:32;;;;;;;3.07;1.90;;;;;;;8.04;nan;98583.03;4997583;28;20187;-81
2023/12/05 07:59:59;;;;;;;7.50;4.07;;;;;;;8.03;nan;98587.44;4996607;28;20685;-79
2023/12/05 08:02:25;;;;;;;4.13;1.85;;;;;;;8.06;nan;98589.84;4998413;28;20218;-78
2023/12/05 08:04:50;;;;;;;7.70;1.90;;;;;;;8.06;nan;98591.63;4996817;28;20200;-82
2023/12/05 08:07:17;;;;;;;6.03;1.63;;;;;;;8.08;nan;98589.75;5001456;28;20455;-80
2023/12/05 08:09:42;;;;;;;1.67;0.88;;;;;;;8.06;nan;98594.22;4998426;28;20413;-81
2023/12/05 08:12:08;;;;;;;1.17;0.80;;;;;;;8.03;nan;98587.44;5002678;28;20206;-80
2023/12/05 08:14:33;;;;;;;1.50;0.83;;;;;;;7.99;nan;98596.41;4999781;28;20203;-80
2023/12/05 08:16:59;;;;;;;1.73;1.00;;;;;;;7.92;nan;98592.56;5002215;28;20193;-80
2023/12/05 08:19:25;;;;;;;1.73;1.30;;;;;;;7.91;nan;98585.66;4998255;28;20191;-80
2023/12/05 08:21:51;;;;;;;1.60;1.00;;;;;;;7.95;nan;98587.13;5002443;28;20199;-79
2023/12/05 08:24:17;;;;;;;1.33;0.82;;;;;;;8.00;nan;98590.28;5005168;28;20919;-81
2023/12/05 08:26:42;;;;;;;2.77;0.87;;;;;;;8.05;nan;98587.34;5001600;28;20353;-80
2023/12/05 08:29:08;;;;;;;1.63;1.00;;;;;;;8.06;nan;98589.84;4992569;28;20230;-79
2023/12/05 08:31:33;;;;;;;1.97;1.10;;;;;;;8.06;nan;98584.59;5002768;28;20317;-79
2023/12/05 08:33:59;;;;;;;2.87;1.70;;;;;;;8.02;nan;98593.63;4995204;28;20206;-79
2023/12/05 08:36:24;;;;;;;3.00;1.33;;;;;;;7.98;nan;98594.75;5002369;28;20789;-78
2023/12/05 08:38:50;;;;;;;3.10;1.27;;;;;;;7.97;nan;98591.31;5002342;28;20202;-78
2023/12/05 08:41:19;;;;;;;3.90;1.87;;;;;;;7.98;nan;98598.19;4994255;28;20286;-79
2023/12/05 08:43:48;;;;;;;2.67;1.65;;;;;;;7.94;nan;98601.16;4998836;28;20206;-79
2023/12/05 08:46:13;;;;;;;1.77;1.10;;;;;;;7.98;nan;98598.19;4999198;28;20584;-79
2023/12/05 08:48:39;;;;;;;6.77;2.63;;;;;;;8.11;nan;98600.81;4996446;28;20695;-78
2023/12/05 08:51:06;;;;;;;4.05;1.30;;;;;;;8.89;nan;98598.84;4996395;28;20668;-79
2023/12/05 08:53:31;;;;;;;1.55;1.35;;;;;;;9.77;nan;98606.25;4999478;28;20210;-78
2023/12/05 08:56:00;;;;;;;4.73;2.80;;;;;;;10.37;nan;98611.22;5005232;28;20281;-78
2023/12/05 08:58:42;;;;;;;1.40;1.20;;;;;;;10.55;nan;98603.66;5000118;28;20206;-78
2023/12/05 09:01:19;;;;;;;2.53;1.55;;;;;;;10.48;nan;98604.28;4996885;28;20192;-78
2023/12/05 09:03:56;;;;;;;2.75;2.13;;;;;;;10.37;nan;98605.13;4999432;28;20842;-78
2023/12/05 09:06:25;;;;;;;5.47;4.32;;;;;;;10.08;nan;98605.56;5003547;28;20216;-79
2023/12/05 09:09:06;;;;;;;3.65;1.77;;;;;;;9.82;nan;98609.38;4999610;28;20774;-78
2023/12/05 09:11:40;;;;;;;2.30;2.10;;;;;;;9.51;nan;98607.28;4999517;28;20293;-79
2023/12/05 09:14:08;;;;;;;2.30;1.40;;;;;;;9.33;nan;98613.91;4998320;28;20199;-78
2023/12/05 09:16:47;;;;;;;3.63;1.60;;;;;;;9.24;nan;98610.19;4997514;28;20442;-79
2023/12/05 09:19:24;;;;;;;5.18;1.95;;;;;;;9.18;nan;98621.13;4992926;28;20194;-77
2023/12/05 09:21:58;;;;;;;2.17;1.40;;;;;;;9.09;nan;98627.84;4998170;28;20183;-78
2023/12/05 09:24:36;;;;;;;3.53;1.38;;;;;;;9.07;nan;98632.41;4995162;28;20209;-78
2023/12/05 09:27:20;;;;;;;1.77;1.55;;;;;;;9.04;nan;98640.44;4999487;28;20209;-77
2023/12/05 09:29:46;;;;;;;1.40;1.20;;;;;;;8.95;nan;98648.16;4997745;28;20217;-80
2023/12/05 09:32:11;;;;;;;1.70;1.30;;;;;;;8.91;nan;98667.66;4997197;28;20766;-80
2023/12/05 09:34:37;;;;;;;3.60;1.90;;;;;;;8.86;nan;98654.91;5000202;28;20202;-79
2023/12/05 09:37:02;;;;;;;2.63;1.03;;;;;;;8.78;nan;98675.56;4996656;28;20207;-78
2023/12/05 09:39:29;;;;;;;1.27;0.80;;;;;;;8.77;nan;98666.00;4993173;28;20210;-78
2023/12/05 09:41:57;;;;;;;1.65;0.90;;;;;;;8.75;nan;98666.16;4998991;28;20211;-79
2023/12/05 09:44:25;;;;;;;4.63;2.10;;;;;;;8.73;nan;98672.44;4998930;28;20939;-79
2023/12/05 09:46:55;;;;;;;2.15;1.55;;;;;;;8.72;nan;98681.22;4996821;28;20211;-80
2023/12/05 09:49:26;;;;;;;2.13;1.52;;;;;;;8.77;nan;98677.31;4995503;28;20222;-79
2023/12/05 09:51:53;;;;;;;3.72;1.80;;;;;;;8.78;nan;98678.19;4999314;28;20238;-79
2023/12/05 09:54:19;;;;;;;1.60;1.05;;;;;;;8.74;nan;98669.69;4998454;28;20234;-79
2023/12/05 09:56:45;;;;;;;1.88;1.15;;;;;;;8.69;nan;98666.56;4993268;28;20195;-80
2023/12/05 09:59:11;;;;;;;2.80;1.10;;;;;;;8.64;nan;98673.91;5003225;28;20207;-79
2023/12/05 10:01:41;;;;;;;3.05;2.13;;;;;;;8.72;nan;98670.75;4999762;28;20458;-80
2023/12/05 10:04:10;;;;;;;2.45;2.15;;;;;;;8.76;nan;98673.03;5006557;28;20242;-78
2023/12/05 10:06:37;;;;;;;4.57;2.22;;;;;;;8.71;nan;98672.53;5004408;28;20225;-81
2023/12/05 10:09:06;;;;;;;4.50;1.38;;;;;;;8.67;nan;98670.22;4997803;28;20954;-79
2023/12/05 10:11:33;;;;;;;2.15;1.33;;;;;;;8.63;nan;98683.53;4997385;28;20245;-80
2023/12/05 10:13:59;;;;;;;1.38;1.15;;;;;;;8.65;nan;98686.06;4998979;28;20696;-81
2023/12/05 10:16:27;;;;;;;2.23;1.90;;;;;;;8.59;nan;98686.50;4997122;28;20199;-81
2023/12/05 10:18:52;;;;;;;5.40;1.40;;;;;;;8.56;nan;98677.06;5000780;28;20696;-82
2023/12/05 10:21:18;;;;;;;3.73;1.40;;;;;;;8.53;nan;98674.69;5003113;28;20298;-78
2023/12/05 10:23:44;;;;;;;1.40;1.13;;;;;;;8.53;nan;98682.53;4998685;28;20684;-77
2023/12/05 10:26:09;;;;;;;2.87;1.40;;;;;;;8.59;nan;98676.03;4998629;28;20217;-77
2023/12/05 10:28:51;;;;;;;2.87;1.13;;;;;;;8.55;nan;98671.94;4996406;28;20477;-78
2023/12/05 10:31:18;;;;;;;1.45;0.95;;;;;;;8.52;nan;98662.53;5000059;28;20260;-78
2023/12/05 10:33:43;;;;;;;2.80;1.10;;;;;;;8.53;nan;98656.34;4994167;28;20199;-78
2023/12/05 10:36:11;;;;;;;0.80;0.80;;;;;;;8.57;nan;98662.22;5000497;28;20209;-78
2023/12/05 10:38:37;;;;;;;3.28;1.60;;;;;;;8.60;nan;98657.56;4997113;28;20475;-78
2023/12/05 10:41:02;;;;;;;2.60;1.23;;;;;;;8.70;nan;98655.16;4999362;28;20234;-78
2023/12/05 10:43:28;;;;;;;2.40;1.13;;;;;;;8.77;nan;98655.53;4999093;28;20203;-78
2023/12/05 10:45:55;;;;;;;1.00;0.70;;;;;;;8.82;nan;98651.66;4995827;28;20294;-78
2023/12/05 10:48:23;;;;;;;3.10;1.02;;;;;;;8.91;nan;98657.16;5000669;28;20225;-77
2023/12/05 10:50:51;;;;;;;3.15;1.30;;;;;;;8.99;nan;98653.06;4996710;28;20802;-77
2023/12/05 10:53:17;;;;;;;1.10;0.93;;;;;;;9.11;nan;98642.66;4994083;28;20211;-77
2023/12/05 10:55:44;;;;;;;1.20;1.10;;;;;;;9.19;nan;98637.69;5002782;28;20199;-78
2023/12/05 10:58:09;;;;;;;4.15;1.10;;;;;;;9.26;nan;98633.63;4999619;28;20190;-78
2023/12/05 11:00:39;;;;;;;4.00;1.37;;;;;;;9.31;nan;98650.69;4989886;28;20195;-77
2023/12/05 11:03:06;;;;;;;1.60;1.20;;;;;;;9.29;nan;98642.13;4999461;28;20458;-78
2023/12/05 11:05:33;;;;;;;5.15;1.60;;;;;;;9.33;nan;98637.50;4999068;28;20203;-76
2023/12/05 11:08:00;;;;;;;3.83;2.03;;;;;;;9.34;nan;98635.69;4996073;28;20229;-76
2023/12/05 11:10:26;;;;;;;2.13;1.70;;;;;;;9.31;nan;98634.13;4997323;28;20652;-75
2023/12/05 11:12:53;;;;;;;1.65;1.13;;;;;;;9.32;nan;98643.69;4998314;28;20222;-76
2023/12/05 11:15:28;;;;;;;3.13;1.60;;;;;;;9.34;nan;98619.97;4998530;28;20229;-75
2023/12/05 11:17:59;;;;;;;2.88;1.33;;;;;;;9.34;nan;98609.50;4991248;28;20194;-76
2023/12/05 11:21:02;;;;;;;1.90;1.33;;;;;;;9.28;nan;98621.28;5000954;28;20692;-76
2023/12/05 11:23:35;;;;;;;9.50;2.60;;;;;;;9.34;nan;98615.56;4987909;28;20561;-77
2023/12/05 11:26:38;;;;;;;10.32;2.45;;;;;;;9.45;nan;98614.75;4998634;28;20285;-78
2023/12/05 11:29:47;;;;;;;6.68;2.45;;;;;;;9.58;nan;98625.16;5002592;28;20209;-79
2023/12/05 11:32:24;;;;;;;7.97;2.60;;;;;;;9.65;nan;98626.41;5000851;28;20198;-78
2023/12/05 11:35:10;;;;;;;2.95;1.80;;;;;;;9.73;nan;98626.66;4993475;28;20754;-78
2023/12/05 11:38:06;;;;;;;2.35;1.75;;;;;;;9.76;nan;98626.41;4999981;28;20202;-77
2023/12/05 11:40:31;;;;;;;2.35;1.60;;;;;;;9.81;nan;98626.06;4997670;28;20206;-77
2023/12/05 11:43:11;;;;;;;8.70;2.17;;;;;;;9.87;nan;98628.22;5006074;28;20241;-80
2023/12/05 11:45:41;;;;;;;2.08;1.50;;;;;;;9.89;nan;98637.63;5000507;28;20202;-81
2023/12/05 11:48:11;;;;;;;1.70;1.30;;;;;;;9.80;nan;98635.69;5001325;28;20222;-81
2023/12/05 11:50:44;;;;;;;2.20;1.65;;;;;;;9.74;nan;98644.88;5001953;28;20199;-81
2023/12/05 11:53:12;;;;;;;2.05;1.05;;;;;;;9.76;nan;98647.38;5005288;28;20195;-80
2023/12/05 11:55:43;;;;;;;3.10;1.60;;;;;;;9.75;nan;98641.31;5003473;28;20214;-80
2023/12/05 11:58:32;;;;;;;5.50;2.05;;;;;;;9.71;nan;98644.28;5004302;28;20446;-81
2023/12/05 12:01:12;;;;;;;3.97;1.42;;;;;;;9.70;nan;98647.88;4999559;28;20191;-80
2023/12/05 12:03:53;;;;;;;5.15;2.92;;;;;;;9.70;nan;98658.34;4996618;28;20875;-81